Time;durP1;ratioP1;P1;durP2;ratioP2;P2;SDS_P1;SDS_P2;PMS_P1;PMS_P2;Temp;Humidity;BMP_temperature;BMP_pressure;BME280_temperature;BME280_humidity;BME280_pressure;Samples;Min_cycle;Max_cycle;Signal;HPM_P1;HPM_P2
2022/06/24 00:00:15;;;;;;;11.63;2.92;;;;;;;24.92;62.43;100372.94;4805476;29;20047;-76
2022/06/24 00:02:48;;;;;;;9.25;2.80;;;;;;;24.89;62.52;100358.91;4805666;29;20418;-76
2022/06/24 00:05:16;;;;;;;5.57;2.70;;;;;;;24.78;62.93;100362.34;4805504;29;20403;-76
2022/06/24 00:07:45;;;;;;;7.53;2.50;;;;;;;24.80;63.29;100367.56;4805536;29;20054;-76
2022/06/24 00:10:18;;;;;;;8.48;2.42;;;;;;;24.76;62.98;100373.13;4805290;29;20415;-76
2022/06/24 00:12:48;;;;;;;8.20;2.38;;;;;;;24.73;63.49;100371.09;4805586;29;20483;-76
2022/06/24 00:15:26;;;;;;;7.57;2.55;;;;;;;24.75;63.75;100367.91;4805301;29;20399;-76
2022/06/24 00:17:54;;;;;;;6.93;2.60;;;;;;;24.70;64.03;100367.06;4804785;29;20514;-75
2022/06/24 00:20:23;;;;;;;7.68;2.67;;;;;;;24.72;64.13;100368.69;4805203;29;20055;-76
2022/06/24 00:22:52;;;;;;;5.28;2.75;;;;;;;24.73;64.01;100365.50;4805382;29;20050;-76
2022/06/24 00:25:25;;;;;;;6.55;2.70;;;;;;;24.74;64.35;100363.50;4805183;29;20057;-76
2022/06/24 00:28:07;;;;;;;6.22;2.80;;;;;;;24.63;64.65;100361.38;4805357;29;20066;-76
2022/06/24 00:30:40;;;;;;;6.65;2.45;;;;;;;24.59;65.12;100359.75;4788940;29;20055;-76
2022/06/24 00:33:32;;;;;;;8.02;2.78;;;;;;;24.58;65.17;100361.72;4805196;29;20042;-76
2022/06/24 00:36:01;;;;;;;8.43;2.90;;;;;;;24.64;64.93;100357.41;4805262;29;20479;-75
2022/06/24 00:38:31;;;;;;;8.93;3.10;;;;;;;24.59;65.39;100360.56;4805051;29;20071;-76
2022/06/24 00:41:07;;;;;;;7.82;2.83;;;;;;;24.54;65.40;100353.31;4805264;29;20050;-76
2022/06/24 00:43:55;;;;;;;6.07;2.53;;;;;;;24.55;65.38;100349.31;4804966;29;20058;-76
2022/06/24 00:46:23;;;;;;;9.10;2.75;;;;;;;24.67;65.19;100350.25;4805076;29;20077;-76
2022/06/24 00:48:57;;;;;;;5.05;2.75;;;;;;;24.56;65.11;100350.94;4804934;29;20241;-76
2022/06/24 00:51:33;;;;;;;6.13;2.83;;;;;;;24.56;65.17;100338.94;4805055;29;20514;-76
2022/06/24 00:54:10;;;;;;;11.05;4.40;;;;;;;24.46;65.96;100339.63;4804887;29;20051;-76
2022/06/24 00:56:39;;;;;;;9.80;3.42;;;;;;;24.38;66.15;100342.34;4788816;29;20038;-76
2022/06/24 00:59:12;;;;;;;7.15;3.47;;;;;;;24.38;66.38;100347.94;4804832;29;20051;-75
2022/06/24 01:01:42;;;;;;;11.05;3.95;;;;;;;24.38;66.32;100350.72;4804950;29;20051;-75
2022/06/24 01:04:12;;;;;;;12.82;3.15;;;;;;;24.18;66.95;100346.47;4804784;29;20065;-75
2022/06/24 01:06:42;;;;;;;12.27;3.67;;;;;;;24.07;67.51;100351.88;4804919;29;20058;-76
2022/06/24 01:09:11;;;;;;;7.82;3.22;;;;;;;23.97;68.20;100344.97;4788185;29;20066;-76
2022/06/24 01:11:42;;;;;;;8.57;3.75;;;;;;;23.95;67.99;100347.34;4804962;29;20514;-76
2022/06/24 01:14:11;;;;;;;9.55;3.28;;;;;;;23.94;68.31;100348.53;4804690;29;20046;-76
2022/06/24 01:16:40;;;;;;;6.07;3.25;;;;;;;23.98;68.35;100343.78;4804790;29;20054;-76
2022/06/24 01:19:10;;;;;;;6.97;2.60;;;;;;;23.94;68.63;100342.94;4788465;29;20063;-76
2022/06/24 01:21:49;;;;;;;9.52;3.33;;;;;;;23.88;68.56;100346.06;4804763;29;20058;-76
2022/06/24 01:24:26;;;;;;;4.72;2.85;;;;;;;23.84;68.99;100342.41;4804701;29;20406;-76
2022/06/24 01:26:57;;;;;;;9.10;3.63;;;;;;;23.94;68.49;100332.56;4804740;29;20043;-76
2022/06/24 01:29:26;;;;;;;8.82;3.50;;;;;;;24.09;68.62;100339.16;4805392;29;20054;-76
2022/06/24 01:31:54;;;;;;;12.05;2.80;;;;;;;24.28;67.40;100340.19;4808141;29;20047;-75
2022/06/24 01:34:23;;;;;;;17.65;3.95;;;;;;;24.32;67.23;100341.06;4808003;29;20570;-76
2022/06/24 01:36:51;;;;;;;10.95;3.58;;;;;;;24.14;67.62;100336.06;4807958;29;20055;-75
2022/06/24 01:39:20;;;;;;;8.50;3.65;;;;;;;23.98;68.57;100332.59;4808024;29;20055;-76
2022/06/24 01:41:50;;;;;;;6.85;3.28;;;;;;;24.14;68.25;100332.44;4791780;29;20066;-76
2022/06/24 01:44:19;;;;;;;7.72;2.95;;;;;;;24.23;67.64;100330.16;4807948;29;20054;-76
2022/06/24 01:46:47;;;;;;;9.73;3.65;;;;;;;24.21;67.82;100324.16;4807799;29;20061;-75
2022/06/24 01:49:15;;;;;;;12.65;4.05;;;;;;;24.24;67.45;100330.97;4791545;29;20047;-76
2022/06/24 01:51:46;;;;;;;5.93;3.50;;;;;;;24.27;67.53;100327.41;4807666;29;20067;-75
2022/06/24 01:54:14;;;;;;;8.10;3.72;;;;;;;24.26;67.41;100325.81;4791823;29;20058;-76
2022/06/24 01:56:42;;;;;;;11.30;3.83;;;;;;;24.22;67.28;100324.94;4807777;29;20384;-75
2022/06/24 01:59:16;;;;;;;7.30;2.88;;;;;;;24.14;67.87;100324.88;4807669;29;20043;-76
2022/06/24 02:01:44;;;;;;;7.22;3.38;;;;;;;23.94;68.60;100326.19;4807762;29;20513;-76
2022/06/24 02:04:13;;;;;;;9.90;3.50;;;;;;;23.84;69.11;100327.63;4807362;29;20062;-75
2022/06/24 02:06:41;;;;;;;7.53;3.47;;;;;;;23.65;70.09;100325.75;4807634;29;20513;-75
2022/06/24 02:09:10;;;;;;;9.75;3.65;;;;;;;23.75;69.50;100319.50;4807317;29;20054;-75
2022/06/24 02:14:25;;;;;;;6.78;3.08;;;;;;;23.40;71.36;100326.97;4807445;29;20050;-76
2022/06/24 02:16:53;;;;;;;7.90;3.28;;;;;;;23.27;71.35;100317.16;4807412;29;20042;-75
2022/06/24 02:19:21;;;;;;;6.72;3.20;;;;;;;23.29;71.48;100329.56;4807247;29;21057;-76
2022/06/24 02:21:50;;;;;;;7.53;2.85;;;;;;;23.31;71.32;100330.03;4806666;29;20057;-76
2022/06/24 02:24:18;;;;;;;10.32;3.80;;;;;;;23.42;70.87;100332.19;4806246;29;20054;-75
2022/06/24 02:26:46;;;;;;;9.32;3.55;;;;;;;23.68;69.89;100336.16;4807248;29;20051;-75
2022/06/24 02:29:13;;;;;;;5.25;3.30;;;;;;;23.84;69.24;100328.44;4807059;29;20042;-75
2022/06/24 02:31:41;;;;;;;10.40;3.95;;;;;;;23.78;69.39;100332.72;4807063;29;20051;-75
2022/06/24 02:34:10;;;;;;;5.55;3.53;;;;;;;23.79;69.23;100331.56;4807116;29;20046;-75
2022/06/24 02:36:38;;;;;;;11.20;4.15;;;;;;;23.75;69.40;100330.69;4794625;29;20051;-75
2022/06/24 02:39:05;;;;;;;5.80;3.58;;;;;;;23.59;70.28;100328.88;4807131;29;20050;-75
2022/06/24 02:41:33;;;;;;;6.15;2.83;;;;;;;23.59;69.85;100323.28;4806263;29;20054;-76
2022/06/24 02:44:01;;;;;;;5.57;2.92;;;;;;;23.61;69.69;100326.50;4806919;29;20055;-76
2022/06/24 02:46:29;;;;;;;9.38;3.30;;;;;;;23.39;70.85;100325.38;4806942;29;20062;-75
2022/06/24 02:48:57;;;;;;;7.53;2.92;;;;;;;23.25;71.31;100314.75;4790129;29;20057;-76
2022/06/24 02:51:25;;;;;;;10.90;3.13;;;;;;;23.27;71.35;100322.75;4806780;29;20046;-75
2022/06/24 02:53:54;;;;;;;4.60;2.58;;;;;;;23.28;70.58;100311.22;4806680;29;20402;-76
2022/06/24 02:56:22;;;;;;;5.60;2.45;;;;;;;23.30;70.38;100311.66;4806783;29;20092;-76
2022/06/24 02:58:50;;;;;;;7.47;3.03;;;;;;;23.27;70.55;100312.38;4790189;29;20511;-77
2022/06/24 03:01:18;;;;;;;8.48;3.08;;;;;;;23.34;70.27;100315.34;4806654;29;20054;-77
2022/06/24 03:03:46;;;;;;;5.70;3.00;;;;;;;23.47;69.43;100317.91;4790272;29;20058;-76
2022/06/24 03:06:14;;;;;;;5.07;2.80;;;;;;;23.54;68.73;100317.22;4806525;29;20050;-76
2022/06/24 03:08:43;;;;;;;6.80;2.88;;;;;;;23.46;68.91;100321.91;4806503;29;20055;-76
2022/06/24 03:11:14;;;;;;;9.30;3.47;;;;;;;23.38;69.41;100329.34;4806253;29;20054;-76
2022/06/24 03:13:42;;;;;;;6.22;2.70;;;;;;;23.28;69.63;100316.81;4790532;29;20078;-77
2022/06/24 03:16:10;;;;;;;6.60;3.08;;;;;;;23.32;69.40;100316.88;4806301;29;20519;-77
2022/06/24 03:18:38;;;;;;;13.23;3.28;;;;;;;23.43;68.69;100319.84;4790348;29;20054;-77
2022/06/24 03:21:08;;;;;;;6.97;3.13;;;;;;;23.37;69.12;100326.94;4806196;29;20050;-77
2022/06/24 03:23:36;;;;;;;8.60;2.60;;;;;;;23.32;68.85;100323.25;4806236;29;20059;-76
2022/06/24 03:26:04;;;;;;;7.00;3.25;;;;;;;23.36;68.66;100320.53;4806067;29;20051;-77
2022/06/24 03:28:32;;;;;;;7.18;2.58;;;;;;;23.27;68.60;100315.16;4806011;29;20059;-78
2022/06/24 03:31:00;;;;;;;7.95;3.17;;;;;;;23.25;69.03;100319.53;4811918;29;20057;-77
2022/06/24 03:33:28;;;;;;;4.70;2.67;;;;;;;23.14;69.48;100324.94;4800123;29;20050;-76
2022/06/24 03:35:56;;;;;;;8.27;3.28;;;;;;;23.09;69.90;100324.06;4823837;29;20050;-76
2022/06/24 03:38:24;;;;;;;5.20;2.92;;;;;;;23.15;70.17;100326.53;4822362;29;20058;-76
2022/06/24 03:40:52;;;;;;;8.30;3.00;;;;;;;23.13;70.13;100337.28;4823840;29;20071;-76
2022/06/24 03:43:20;;;;;;;10.05;3.05;;;;;;;23.17;70.31;100341.72;4791055;29;20062;-77
2022/06/24 03:45:48;;;;;;;10.77;3.33;;;;;;;23.20;69.99;100337.38;4813282;29;20063;-76
2022/06/24 03:48:16;;;;;;;6.82;2.67;;;;;;;23.23;69.86;100333.88;4789695;29;20069;-76
2022/06/24 03:50:44;;;;;;;12.95;3.17;;;;;;;23.34;69.00;100342.44;4805731;29;20507;-76
2022/06/24 03:53:13;;;;;;;6.25;2.72;;;;;;;23.18;69.76;100343.34;4805586;29;20055;-76
2022/06/24 03:55:41;;;;;;;7.88;2.75;;;;;;;23.33;69.74;100338.84;4805673;29;20495;-76
2022/06/24 03:58:09;;;;;;;7.60;3.13;;;;;;;23.25;70.13;100339.88;4805122;29;20055;-76
2022/06/24 04:00:37;;;;;;;6.43;3.30;;;;;;;23.21;71.15;100347.38;4805651;29;20057;-76
2022/06/24 04:03:05;;;;;;;10.98;3.45;;;;;;;23.31;70.75;100349.56;4805568;29;20058;-76
2022/06/24 04:05:33;;;;;;;11.02;3.75;;;;;;;23.15;71.28;100348.84;4805645;29;20376;-76
2022/06/24 04:08:01;;;;;;;12.10;3.60;;;;;;;23.07;71.70;100343.16;4805534;29;20047;-76
2022/06/24 04:10:30;;;;;;;7.82;3.50;;;;;;;22.91;72.34;100328.50;4805379;29;20062;-76
2022/06/24 04:12:57;;;;;;;11.35;3.50;;;;;;;22.91;72.89;100339.66;4805505;29;20042;-76
2022/06/24 04:15:25;;;;;;;10.43;3.83;;;;;;;23.06;72.06;100321.19;4805288;29;20045;-76
2022/06/24 04:17:54;;;;;;;10.02;3.47;;;;;;;23.02;72.63;100337.88;4805365;29;20066;-76
2022/06/24 04:20:22;;;;;;;7.38;3.50;;;;;;;22.90;73.36;100344.47;4805273;29;20043;-76
2022/06/24 04:22:50;;;;;;;11.80;3.88;;;;;;;23.02;73.05;100335.09;4805343;29;20513;-76
2022/06/24 04:25:18;;;;;;;11.20;3.58;;;;;;;23.33;71.58;100338.03;4805221;29;20053;-76
2022/06/24 04:27:46;;;;;;;6.70;3.35;;;;;;;23.32;71.70;100336.44;4805190;29;20055;-77
2022/06/24 04:30:14;;;;;;;6.43;3.33;;;;;;;23.07;72.45;100347.94;4788565;29;20055;-76
2022/06/24 04:32:42;;;;;;;6.80;4.18;;;;;;;23.20;72.08;100343.78;4805284;29;20039;-76
2022/06/24 04:35:10;;;;;;;6.53;3.47;;;;;;;23.30;71.90;100350.72;4805072;29;20051;-81
2022/06/24 04:37:40;;;;;;;12.02;4.70;;;;;;;23.55;71.26;100355.94;4804696;29;20046;-81
2022/06/24 04:40:13;;;;;;;10.27;3.72;;;;;;;23.75;70.48;100348.25;4791971;29;20046;-81
2022/06/24 04:42:41;;;;;;;8.18;3.65;;;;;;;23.85;70.15;100351.59;4806030;29;20062;-81
2022/06/24 04:45:09;;;;;;;10.93;3.65;;;;;;;24.11;68.96;100353.59;4814426;29;20046;-81
2022/06/24 04:47:37;;;;;;;7.85;3.95;;;;;;;24.06;69.13;100345.50;4805103;29;20046;-81
2022/06/24 04:50:06;;;;;;;12.63;4.47;;;;;;;24.36;68.45;100355.09;4805056;29;20046;-81
2022/06/24 04:52:35;;;;;;;8.13;4.47;;;;;;;24.38;68.46;100355.50;4804942;29;20058;-81
2022/06/24 04:55:05;;;;;;;4.97;3.40;;;;;;;24.45;68.57;100355.59;4805067;29;20055;-81
2022/06/24 04:57:33;;;;;;;10.90;4.35;;;;;;;24.53;68.47;100364.88;4804927;29;20049;-81
2022/06/24 05:00:02;;;;;;;14.80;4.70;;;;;;;24.62;68.52;100367.38;4786983;29;20058;-81
2022/06/24 05:02:30;;;;;;;6.43;3.95;;;;;;;24.65;68.75;100367.44;4804555;29;20047;-81
2022/06/24 05:04:59;;;;;;;9.05;4.43;;;;;;;24.67;69.14;100372.63;4806844;29;20055;-82
2022/06/24 05:07:27;;;;;;;11.85;4.47;;;;;;;24.74;68.83;100363.50;4808125;29;20050;-83
2022/06/24 05:09:55;;;;;;;11.75;5.07;;;;;;;24.77;68.94;100365.53;4803836;29;20051;-82
2022/06/24 05:12:22;;;;;;;7.75;5.20;;;;;;;24.85;68.85;100369.25;4808110;29;20055;-81
2022/06/24 05:14:50;;;;;;;6.93;4.68;;;;;;;25.03;67.89;100372.22;4808424;29;20053;-82
2022/06/24 05:17:24;;;;;;;6.13;4.25;;;;;;;25.20;66.90;100374.41;4807897;29;20403;-82
2022/06/24 05:19:53;;;;;;;12.55;5.30;;;;;;;25.31;67.10;100377.28;4807890;29;20070;-82
2022/06/24 05:22:21;;;;;;;12.52;5.50;;;;;;;25.20;68.14;100380.00;4791799;29;20051;-82
2022/06/24 05:24:49;;;;;;;14.32;5.20;;;;;;;25.25;67.66;100384.44;4808288;29;20498;-82
2022/06/24 05:27:17;;;;;;;12.48;4.93;;;;;;;25.27;67.45;100384.84;4807935;29;20055;-82
2022/06/24 05:29:45;;;;;;;8.15;4.97;;;;;;;25.45;66.59;100382.22;4807806;29;20050;-80
2022/06/24 05:32:15;;;;;;;11.90;5.25;;;;;;;25.41;66.51;100375.75;4807891;29;20054;-79
2022/06/24 05:34:44;;;;;;;8.60;4.68;;;;;;;25.43;67.33;100384.59;4807980;29;20047;-80
2022/06/24 05:37:12;;;;;;;10.85;4.47;;;;;;;25.57;66.30;100363.53;4808165;29;20054;-80
2022/06/24 05:39:40;;;;;;;10.07;4.28;;;;;;;25.62;65.62;100379.97;4806983;29;20054;-80
2022/06/24 05:42:08;;;;;;;12.27;5.57;;;;;;;25.54;65.55;100367.91;4810946;29;20050;-80
2022/06/24 05:44:36;;;;;;;11.73;4.75;;;;;;;25.54;65.25;100376.31;4807019;29;20065;-80
2022/06/24 05:47:04;;;;;;;9.38;4.85;;;;;;;25.54;65.52;100372.69;4807831;29;20082;-80
2022/06/24 05:49:32;;;;;;;10.77;5.45;;;;;;;25.53;65.03;100371.06;4807971;29;20051;-80
2022/06/24 05:52:00;;;;;;;10.75;4.07;;;;;;;25.76;64.42;100380.06;4807629;29;20063;-80
2022/06/24 05:55:14;;;;;;;10.27;5.00;;;;;;;25.89;63.66;100374.94;4807782;29;20047;-80
2022/06/24 05:57:16;;;;;;;9.45;4.28;;;;;;;25.81;62.21;100381.69;4788563;29;20726;-80
2022/06/24 05:59:44;;;;;;;8.20;3.13;;;;;;;25.90;61.10;100373.75;4807724;29;20070;-80
2022/06/24 06:02:12;;;;;;;4.72;3.13;;;;;;;26.04;61.02;100377.81;4794368;29;20055;-80
2022/06/24 06:04:40;;;;;;;6.28;3.63;;;;;;;26.06;59.59;100385.84;4789351;29;20043;-80
2022/06/24 06:07:08;;;;;;;5.38;2.88;;;;;;;26.15;59.84;100389.13;4789171;29;20403;-80
2022/06/24 06:09:36;;;;;;;9.25;2.90;;;;;;;26.24;59.66;100386.00;4800490;29;20059;-80
2022/06/24 06:12:05;;;;;;;5.22;2.75;;;;;;;26.37;59.22;100390.06;4774379;29;20074;-80
2022/06/24 06:14:33;;;;;;;5.78;3.53;;;;;;;26.38;59.38;100402.88;4791978;29;20055;-80
2022/06/24 06:17:02;;;;;;;8.30;3.30;;;;;;;26.51;59.59;100402.53;4773526;29;20404;-80
2022/06/24 06:19:33;;;;;;;9.38;3.35;;;;;;;26.61;58.92;100404.56;4792260;29;20491;-80
2022/06/24 06:22:03;;;;;;;8.43;3.60;;;;;;;26.72;58.59;100396.19;4790677;29;20517;-80
2022/06/24 06:24:31;;;;;;;6.07;3.05;;;;;;;26.79;58.38;100390.59;4788835;29;20054;-80
2022/06/24 06:26:59;;;;;;;9.57;2.80;;;;;;;26.78;58.63;100393.81;4785698;29;20525;-80
2022/06/24 06:29:27;;;;;;;11.85;3.35;;;;;;;26.65;59.42;100396.16;4796505;29;20055;-80
2022/06/24 06:31:55;;;;;;;6.43;3.42;;;;;;;26.62;58.88;100402.56;4792193;29;20055;-80
2022/06/24 06:34:24;;;;;;;5.90;2.90;;;;;;;26.55;59.19;100401.34;4789691;29;20044;-80
2022/06/24 06:36:52;;;;;;;7.18;2.78;;;;;;;26.64;59.29;100397.38;4775612;29;20063;-80
2022/06/24 06:39:20;;;;;;;9.13;4.10;;;;;;;26.71;58.84;100397.38;4803668;29;20061;-80
2022/06/24 06:41:47;;;;;;;7.50;3.60;;;;;;;26.72;58.26;100390.56;4805898;29;20071;-80
2022/06/24 06:44:16;;;;;;;9.82;3.60;;;;;;;26.69;58.47;100382.97;4806651;29;20063;-80
2022/06/24 06:46:44;;;;;;;7.70;2.90;;;;;;;26.86;58.02;100395.41;4806810;29;20054;-80
2022/06/24 06:49:12;;;;;;;5.15;3.17;;;;;;;26.89;58.32;100394.66;4778256;29;20054;-80
2022/06/24 06:51:40;;;;;;;8.27;3.05;;;;;;;27.07;57.43;100397.50;4806609;29;20051;-80
2022/06/24 06:54:08;;;;;;;4.60;2.78;;;;;;;27.00;57.10;100385.44;4806658;29;20054;-80
2022/06/24 06:56:36;;;;;;;5.25;3.17;;;;;;;27.11;57.55;100391.88;4790523;29;20043;-80
2022/06/24 06:59:04;;;;;;;6.88;3.45;;;;;;;27.10;57.53;100393.91;4806459;29;20070;-80
2022/06/24 07:01:32;;;;;;;6.93;3.00;;;;;;;27.13;57.76;100395.13;4790489;29;20054;-80
2022/06/24 07:04:01;;;;;;;6.78;3.22;;;;;;;27.14;57.04;100384.66;4806427;29;20046;-80
2022/06/24 07:06:29;;;;;;;6.68;2.80;;;;;;;27.35;55.99;100384.69;4806486;29;20402;-80
2022/06/24 07:08:57;;;;;;;7.75;2.83;;;;;;;27.26;56.24;100389.09;4806124;29;20065;-80
2022/06/24 07:11:25;;;;;;;5.25;3.28;;;;;;;27.14;57.38;100381.84;4806237;29;20054;-80
2022/06/24 07:13:54;;;;;;;4.85;3.13;;;;;;;27.34;56.38;100380.28;4806233;29;20054;-80
2022/06/24 07:16:23;;;;;;;5.32;3.08;;;;;;;27.43;55.90;100379.06;4806295;29;20050;-80
2022/06/24 07:18:51;;;;;;;10.25;3.50;;;;;;;27.57;55.44;100379.03;4806094;29;20051;-80
2022/06/24 07:21:19;;;;;;;8.38;2.88;;;;;;;27.45;55.24;100380.28;4806035;29;20078;-80
2022/06/24 07:23:46;;;;;;;5.97;2.90;;;;;;;27.70;54.94;100387.13;4806385;29;20062;-80
2022/06/24 07:26:14;;;;;;;5.05;2.85;;;;;;;27.70;55.65;100385.09;4805978;29;20042;-80
2022/06/24 07:28:42;;;;;;;9.18;3.80;;;;;;;27.80;55.43;100386.28;4805776;29;20062;-80
2022/06/24 07:31:19;;;;;;;5.57;2.92;;;;;;;27.99;54.15;100387.84;4805960;29;20069;-80
2022/06/24 07:33:47;;;;;;;4.88;2.50;;;;;;;28.04;53.72;100378.19;4805962;29;20075;-80
2022/06/24 07:36:16;;;;;;;5.88;2.80;;;;;;;28.24;53.33;100372.94;4805622;29;20055;-80
2022/06/24 07:38:44;;;;;;;8.63;3.33;;;;;;;28.32;53.41;100378.53;4805925;29;20059;-80
2022/06/24 07:41:13;;;;;;;10.25;3.47;;;;;;;28.22;53.32;100364.13;4789826;29;20054;-80
2022/06/24 07:43:41;;;;;;;5.30;3.45;;;;;;;28.31;52.05;100366.50;4805699;29;20051;-80
2022/06/24 07:46:08;;;;;;;6.65;3.80;;;;;;;28.04;52.97;100367.75;4789783;29;20054;-80
2022/06/24 07:48:37;;;;;;;10.02;3.38;;;;;;;28.28;53.79;100359.66;4805563;29;20055;-80
2022/06/24 07:51:13;;;;;;;7.15;2.88;;;;;;;28.61;51.89;100369.97;4805698;29;20062;-80
2022/06/24 07:53:42;;;;;;;6.03;2.45;;;;;;;28.79;50.49;100361.44;4805556;29;20059;-80
2022/06/24 07:59:05;;;;;;;6.45;2.58;;;;;;;29.18;49.51;100365.22;4805447;29;20042;-80
2022/06/24 08:01:34;;;;;;;6.93;2.88;;;;;;;29.48;48.89;100363.78;4805623;29;20046;-80
2022/06/24 08:04:07;;;;;;;6.20;1.98;;;;;;;29.48;47.50;100353.28;4789348;29;20078;-80
2022/06/24 08:06:42;;;;;;;5.88;2.88;;;;;;;29.46;47.92;100360.53;4805631;29;20062;-80
2022/06/24 08:09:10;;;;;;;6.28;2.42;;;;;;;29.50;47.81;100352.88;4805302;29;20054;-80
2022/06/24 08:11:38;;;;;;;6.50;2.83;;;;;;;29.38;48.03;100348.53;4805350;29;20058;-80
2022/06/24 08:14:06;;;;;;;5.22;3.33;;;;;;;29.26;48.01;100347.03;4805226;29;20075;-80
2022/06/24 08:16:34;;;;;;;5.63;2.78;;;;;;;29.05;49.53;100351.63;4805346;29;20053;-81
2022/06/24 08:19:03;;;;;;;7.13;2.55;;;;;;;29.11;49.24;100346.34;4805276;29;20077;-81
2022/06/24 08:21:31;;;;;;;4.60;2.15;;;;;;;29.27;47.21;100347.84;4805256;29;20490;-81
2022/06/24 08:23:59;;;;;;;3.20;1.85;;;;;;;29.44;45.94;100346.88;4805173;29;20403;-81
2022/06/24 08:26:27;;;;;;;6.95;2.33;;;;;;;29.45;45.74;100342.03;4789128;29;20533;-81
2022/06/24 08:28:56;;;;;;;4.45;1.98;;;;;;;29.50;45.14;100339.59;4805097;29;20113;-81
2022/06/24 08:31:24;;;;;;;4.43;2.40;;;;;;;29.33;46.11;100332.06;4804989;29;20051;-81
2022/06/24 08:33:52;;;;;;;9.38;2.22;;;;;;;29.12;46.60;100339.47;4805252;29;20071;-81
2022/06/24 08:36:24;;;;;;;7.57;2.53;;;;;;;29.09;46.90;100338.28;4804609;29;20384;-81
2022/06/24 08:38:54;;;;;;;5.63;2.47;;;;;;;29.21;44.60;100331.38;4804307;29;20054;-81
2022/06/24 08:41:23;;;;;;;9.05;2.33;;;;;;;29.36;44.93;100328.41;4788798;29;20069;-81
2022/06/24 08:43:53;;;;;;;5.13;2.42;;;;;;;29.60;45.11;100326.59;4804939;29;20410;-81
2022/06/24 08:46:22;;;;;;;8.25;2.42;;;;;;;29.47;45.77;100322.69;4804991;29;20054;-81
2022/06/24 08:48:51;;;;;;;7.78;2.03;;;;;;;29.55;44.25;100317.78;4804780;29;20487;-81
2022/06/24 08:51:20;;;;;;;6.18;2.33;;;;;;;29.59;44.40;100316.56;4804923;29;20054;-81
2022/06/24 08:53:48;;;;;;;10.15;2.30;;;;;;;29.81;43.25;100318.34;4804716;29;20149;-81
2022/06/24 08:56:36;;;;;;;7.63;1.73;;;;;;;29.74;44.31;100313.56;4804861;29;20046;-81
2022/06/24 08:59:04;;;;;;;6.25;1.92;;;;;;;29.94;43.37;100307.28;4804661;29;20054;-81
2022/06/24 09:01:39;;;;;;;7.78;2.33;;;;;;;29.90;41.45;100304.53;4804912;29;20400;-81
2022/06/24 09:04:08;;;;;;;4.00;1.45;;;;;;;30.03;41.55;100297.13;4804698;29;20059;-81
2022/06/24 09:06:38;;;;;;;3.78;1.75;;;;;;;30.20;40.74;100302.19;4804779;29;20061;-81
2022/06/24 09:09:07;;;;;;;3.78;1.70;;;;;;;30.15;39.89;100314.75;4804592;29;20392;-81
2022/06/24 09:11:37;;;;;;;1.85;1.40;;;;;;;29.83;39.86;100310.25;4804752;29;20054;-81
2022/06/24 09:14:06;;;;;;;3.45;1.63;;;;;;;29.99;40.22;100304.00;4804579;29;20059;-81
2022/06/24 09:16:38;;;;;;;3.40;1.67;;;;;;;30.17;39.35;100306.66;4804678;29;20047;-81
2022/06/24 09:19:15;;;;;;;4.95;1.65;;;;;;;30.48;39.98;100301.00;4804518;29;20050;-81
2022/06/24 09:21:43;;;;;;;8.98;1.58;;;;;;;30.70;38.42;100297.88;4804592;29;20051;-81
2022/06/24 09:24:11;;;;;;;8.07;1.50;;;;;;;30.88;36.93;100302.44;4804479;29;20050;-81
2022/06/24 09:26:41;;;;;;;4.47;1.60;;;;;;;30.69;37.73;100301.94;4804663;29;20043;-81
2022/06/24 09:29:14;;;;;;;7.38;1.65;;;;;;;31.01;38.20;100306.25;4804482;29;20047;-81
2022/06/24 09:31:43;;;;;;;4.50;1.40;;;;;;;31.03;36.32;100308.66;4804616;29;20051;-80
2022/06/24 09:34:16;;;;;;;5.60;1.92;;;;;;;31.13;37.13;100306.88;4804466;29;20053;-81
2022/06/24 09:36:46;;;;;;;5.70;1.70;;;;;;;31.10;36.24;100294.41;4804496;29;20415;-81
2022/06/24 09:39:16;;;;;;;6.03;2.03;;;;;;;31.31;36.51;100281.97;4804706;29;20051;-81
2022/06/24 09:41:56;;;;;;;6.88;2.33;;;;;;;31.43;36.00;100285.38;4804424;29;20043;-81
2022/06/24 09:44:26;;;;;;;3.50;1.10;;;;;;;31.53;36.54;100289.25;4804559;29;20047;-81
2022/06/24 09:47:05;;;;;;;3.25;1.33;;;;;;;31.74;36.63;100288.03;4804317;29;20047;-81
2022/06/24 09:49:33;;;;;;;3.78;1.80;;;;;;;31.54;36.88;100285.19;4804437;29;20051;-81
2022/06/24 09:52:02;;;;;;;5.97;2.10;;;;;;;31.21;36.14;100302.69;4790310;29;20063;-81
2022/06/24 09:54:31;;;;;;;2.20;1.35;;;;;;;31.07;37.12;100290.41;4807772;29;20384;-81
2022/06/24 09:57:00;;;;;;;3.08;1.60;;;;;;;31.06;38.11;100280.34;4791351;29;20058;-81
2022/06/24 10:02:21;;;;;;;4.63;1.63;;;;;;;31.13;37.03;100279.41;4807520;29;20055;-81
2022/06/24 10:04:52;;;;;;;12.60;2.50;;;;;;;31.19;37.54;100288.22;4807586;29;20490;-81
2022/06/24 10:07:25;;;;;;;4.90;1.98;;;;;;;31.25;38.73;100280.81;4807353;29;20061;-81
2022/06/24 10:10:05;;;;;;;7.70;2.13;;;;;;;31.52;37.44;100288.44;4807521;29;20094;-81
2022/06/24 10:12:44;;;;;;;4.55;1.98;;;;;;;31.69;37.42;100288.53;4791387;29;20047;-81
2022/06/24 10:15:14;;;;;;;3.05;2.10;;;;;;;31.75;37.53;100281.94;4807372;29;20051;-81
2022/06/24 10:17:47;;;;;;;3.15;1.45;;;;;;;31.66;37.58;100292.22;4791240;29;20066;-81
2022/06/24 10:20:17;;;;;;;55.53;5.95;;;;;;;31.84;37.09;100287.03;4807403;29;20062;-81
2022/06/24 10:22:50;;;;;;;11.15;2.13;;;;;;;31.91;37.42;100286.09;4791197;29;20046;-81
2022/06/24 10:25:47;;;;;;;9.47;2.27;;;;;;;32.20;35.82;100273.38;4806557;29;20042;-81
2022/06/24 10:28:15;;;;;;;4.88;1.98;;;;;;;32.37;35.18;100282.69;4812373;29;20050;-81
2022/06/24 10:30:43;;;;;;;3.53;1.52;;;;;;;32.29;35.81;100287.69;4806945;29;20513;-81
2022/06/24 10:33:20;;;;;;;;;;;;;;;32.09;36.23;100285.72;4807100;29;20077;-81
2022/06/24 10:35:55;;;;;;;3.63;1.40;;;;;;;31.85;36.70;100282.97;4788568;29;19929;-81
2022/06/24 10:38:34;;;;;;;4.80;1.77;;;;;;;31.74;35.27;100271.84;4803136;29;20046;-81
2022/06/24 10:41:03;;;;;;;4.80;1.60;;;;;;;31.87;33.72;100286.16;4790749;29;20422;-81
2022/06/24 10:43:35;;;;;;;4.18;1.70;;;;;;;31.98;34.63;100285.16;4805899;29;20487;-81
2022/06/24 10:46:12;;;;;;;5.28;1.60;;;;;;;32.01;35.15;100278.63;4782227;29;20062;-81
2022/06/24 10:48:43;;;;;;;8.07;1.77;;;;;;;32.30;34.86;100280.84;4790573;29;20050;-81
2022/06/24 10:51:16;;;;;;;3.88;1.48;;;;;;;32.27;32.63;100278.88;4792885;29;20043;-81
2022/06/24 10:54:03;;;;;;;25.40;3.40;;;;;;;32.31;33.57;100273.94;4771683;29;20055;-82
2022/06/24 10:56:50;;;;;;;2.38;1.23;;;;;;;32.48;32.40;100277.59;4775986;29;20051;-81
2022/06/24 10:59:20;;;;;;;6.00;1.50;;;;;;;32.51;32.70;100276.75;4792419;29;20415;-82
2022/06/24 11:01:50;;;;;;;2.67;1.13;;;;;;;32.42;33.90;100290.69;4788441;29;20055;-82
2022/06/24 11:04:30;;;;;;;3.03;1.45;;;;;;;32.31;33.45;100276.75;4789824;29;20058;-82
2022/06/24 11:07:13;;;;;;;3.08;1.58;;;;;;;32.35;33.04;100276.69;4789077;29;20047;-82
2022/06/24 11:09:42;;;;;;;4.00;1.77;;;;;;;32.63;32.96;100283.72;4795479;29;20398;-82
2022/06/24 11:12:30;;;;;;;3.08;1.40;;;;;;;32.92;32.04;100280.19;4773751;29;20055;-82
2022/06/24 11:14:59;;;;;;;6.28;1.77;;;;;;;33.19;32.15;100273.44;4799241;29;20051;-82
2022/06/24 11:17:27;;;;;;;3.97;1.58;;;;;;;32.98;31.30;100263.47;4789620;29;20791;-82
2022/06/24 11:19:55;;;;;;;3.58;1.23;;;;;;;33.07;31.19;100268.50;4792416;29;20047;-82
2022/06/24 11:22:30;;;;;;;2.08;1.17;;;;;;;33.03;31.04;100265.00;4772231;29;20062;-82
2022/06/24 11:25:02;;;;;;;3.95;1.08;;;;;;;32.88;30.97;100259.66;4787535;29;20543;-82
2022/06/24 11:27:37;;;;;;;2.47;1.55;;;;;;;33.13;31.07;100272.41;4787270;29;20048;-82
2022/06/24 11:30:09;;;;;;;3.42;0.85;;;;;;;33.22;30.74;100252.72;4803074;29;20073;-83
2022/06/24 11:32:54;;;;;;;2.17;1.27;;;;;;;33.06;30.86;100255.59;4794184;29;20052;-82
2022/06/24 11:35:23;;;;;;;4.43;1.15;;;;;;;33.04;31.41;100258.06;4804859;29;20174;-82
2022/06/24 11:37:52;;;;;;;3.70;0.93;;;;;;;33.39;31.17;100258.38;4789343;29;20531;-82
2022/06/24 11:40:23;;;;;;;5.85;1.25;;;;;;;33.54;31.05;100263.66;4805846;29;20047;-82
2022/06/24 11:42:52;;;;;;;1.60;1.20;;;;;;;33.27;30.96;100270.44;4789371;29;20054;-81
2022/06/24 11:45:44;;;;;;;3.05;1.00;;;;;;;33.49;31.30;100257.28;4807736;29;20046;-81